Ann Arbor, MI

11:48 PM EDT on September 03, 2015 (GMT -0400)
Virginia Park | | Change Station
CLOSE
Current Station
Personal Weather Station
Location: Ann Arbor, MI
Elevation: 896 ft
Nearby Weather Stations

Elev 896 ft 42.28 °N, 83.77 °W | Updated 14 seconds ago

Overcast
Overcast
65.8 °F
Feels Like 65.8 °F
N
3.0
Wind Variable Wind from ESE
Gusts 5.0 mph

Today
High -- | Low -- °F
--% Chance of Precip.
Yesterday
High -- | Low -- °F
Precip. -- in
7:02 AM 8:06 PM
Waning Gibbous, 64% visible
Pressure 29.95 in
Visibility 8.0 miles
Clouds Few 800 ft
Mostly Cloudy 4800 ft
Overcast 8500 ft
Dew Point 66 °F
Humidity 99%
Rainfall 1.23 in
Snow Depth Not available.
UV 0 out of 12
Pollen 7.20 out of 12
Air Quality Not available.
Flu Activity Not available.
SPECI KARB 040303Z AUTO 09007KT 8SM -RA FEW008 BKN048 OVC085 19/19 A2995 RMK AO2 LTG DSNT E-S TSE0257 P0000 T01940189
Pressure 29.95 in
Visibility 8.0 miles
Clouds Few 800 ft
Mostly Cloudy 4800 ft
Overcast 8500 ft
Dew Point 66 °F
Humidity 99%
Rainfall 1.23 in
Snow Depth Not available.
UV 0 out of 12
Pollen 7.20 out of 12
Air Quality Not available.
Flu Activity Not available.
SPECI KARB 040303Z AUTO 09007KT 8SM -RA FEW008 BKN048 OVC085 19/19 A2995 RMK AO2 LTG DSNT E-S TSE0257 P0000 T01940189

10-Day Weather Forecast

×

Almanac

Astronomy

Sep. 03, 2015 Rise Set
Actual Time
Civil Twilight
Nautical Twilight
Astronomical Twilight
Moon
Length of Visible Light
Length of Day
Tomorrow will be .
, % of the Moon is Illuminated

Today's Extremes

State Highs State Lows

Community

WunderPhotos

Upload Photos

1,852,118 photos uploaded!

WunderBlogs® & News

Nearby

Air Quality

  Air Quality AQ Index Pollutant
Not available.

Snow Depth

Station Depth Elevation

Earthquake Activity

City Distance Mag. Time & Date
Minimum magnitude displayed is 2.5.

Coastal Water Temperatures

Place Temperature

Stations

Nearby Weather Stations

Station Location Temp. Windchill Dew Point Humidity Wind Precip. Elev Updated Type